createdAt,value
2022-08-24T00:00:37.771Z,2.87
2022-08-24T00:03:10.099Z,2.83
2022-08-24T00:05:42.474Z,3.07
2022-08-24T00:08:14.343Z,2.90
2022-08-24T00:10:46.273Z,2.97
2022-08-24T00:13:18.310Z,2.93
2022-08-24T00:15:50.105Z,2.93
2022-08-24T00:18:22.090Z,2.70
2022-08-24T00:20:54.209Z,3.00
2022-08-24T00:23:26.557Z,2.97
2022-08-24T00:25:59.356Z,2.90
2022-08-24T00:28:32.527Z,2.33
2022-08-24T00:31:05.352Z,2.50
2022-08-24T00:33:39.223Z,2.70
2022-08-24T00:36:12.409Z,3.00
2022-08-24T00:38:45.056Z,3.17
2022-08-24T00:41:17.023Z,3.20
2022-08-24T00:43:49.011Z,2.87
2022-08-24T00:46:21.300Z,2.93
2022-08-24T00:48:53.323Z,2.80
2022-08-24T00:51:27.273Z,3.30
2022-08-24T00:54:01.621Z,3.23
2022-08-24T00:56:33.710Z,2.60
2022-08-24T00:59:06.843Z,3.13
2022-08-24T01:01:39.016Z,2.70
2022-08-24T01:04:10.974Z,2.50
2022-08-24T01:06:42.856Z,2.97
2022-08-24T01:09:14.822Z,2.30
2022-08-24T01:11:48.242Z,2.50
2022-08-24T01:14:20.270Z,2.40
2022-08-24T01:16:52.226Z,2.53
2022-08-24T01:19:24.382Z,3.00
2022-08-24T01:21:56.152Z,2.43
2022-08-24T01:24:28.004Z,2.60
2022-08-24T01:26:59.870Z,2.30
2022-08-24T01:29:32.282Z,2.80
2022-08-24T01:32:04.098Z,2.33
2022-08-24T01:34:36.045Z,3.13
2022-08-24T01:37:07.922Z,3.33
2022-08-24T01:39:39.879Z,3.20
2022-08-24T01:42:11.672Z,2.23
2022-08-24T01:44:45.242Z,2.87
2022-08-24T01:47:17.748Z,2.40
2022-08-24T01:49:49.671Z,2.63
2022-08-24T01:52:23.235Z,2.70
2022-08-24T01:54:55.804Z,2.67
2022-08-24T01:57:28.828Z,2.43
2022-08-24T02:00:01.793Z,2.77
2022-08-24T02:02:35.390Z,2.57
2022-08-24T02:05:07.331Z,3.53
2022-08-24T02:07:39.212Z,2.73
2022-08-24T02:10:11.056Z,2.83
2022-08-24T02:12:42.947Z,3.20
2022-08-24T02:15:14.776Z,2.97
2022-08-24T02:17:46.765Z,2.60
2022-08-24T02:20:19.436Z,3.00
2022-08-24T02:22:51.300Z,3.73
2022-08-24T02:25:23.622Z,3.10
2022-08-24T02:27:55.474Z,3.37
2022-08-24T02:30:27.446Z,4.50
2022-08-24T02:32:59.911Z,4.30
2022-08-24T02:35:32.163Z,3.93
2022-08-24T02:38:04.212Z,3.70
2022-08-24T02:40:36.871Z,4.40
2022-08-24T02:43:09.324Z,4.10
2022-08-24T02:45:41.298Z,3.87
2022-08-24T02:48:13.539Z,4.00
2022-08-24T02:50:45.366Z,3.73
2022-08-24T02:53:17.512Z,4.97
2022-08-24T02:55:49.763Z,4.03
2022-08-24T02:58:21.798Z,5.83
2022-08-24T03:00:55.184Z,3.70
2022-08-24T03:03:27.099Z,3.87
2022-08-24T03:05:59.857Z,3.60
2022-08-24T03:08:31.828Z,3.90
2022-08-24T03:11:06.545Z,4.17
2022-08-24T03:13:38.630Z,4.10
2022-08-24T03:16:10.984Z,4.83
2022-08-24T03:18:42.963Z,4.30
2022-08-24T03:21:16.202Z,3.57
2022-08-24T03:23:48.297Z,3.57
2022-08-24T03:26:20.410Z,3.73
2022-08-24T03:28:52.527Z,3.73
2022-08-24T03:31:24.737Z,3.80
2022-08-24T03:33:56.649Z,3.83
2022-08-24T03:36:29.066Z,4.10
2022-08-24T03:39:00.924Z,3.70
2022-08-24T03:41:33.837Z,3.90
2022-08-24T03:44:06.454Z,3.50
2022-08-24T03:46:38.334Z,4.00
2022-08-24T03:49:10.465Z,3.57
2022-08-24T03:51:42.782Z,3.80
2022-08-24T03:54:15.041Z,4.00
2022-08-24T03:56:47.126Z,4.40
2022-08-24T03:59:20.062Z,4.23
2022-08-24T04:01:54.083Z,3.80
2022-08-24T04:04:26.290Z,4.23
2022-08-24T04:06:58.204Z,4.33
2022-08-24T04:09:30.487Z,3.87
2022-08-24T04:12:02.825Z,4.07
2022-08-24T04:14:34.663Z,4.10
2022-08-24T04:17:08.433Z,3.60
2022-08-24T04:19:42.133Z,4.50
2022-08-24T04:22:14.416Z,4.40
2022-08-24T04:24:46.349Z,3.97
2022-08-24T04:27:19.019Z,4.07
2022-08-24T04:29:51.449Z,4.70
2022-08-24T04:32:23.792Z,4.13
2022-08-24T04:34:57.383Z,4.37
2022-08-24T04:37:29.533Z,4.27
2022-08-24T04:40:01.716Z,4.40
2022-08-24T04:42:36.531Z,4.20
2022-08-24T04:45:09.056Z,4.43
2022-08-24T04:47:41.660Z,3.57
2022-08-24T04:50:14.539Z,4.67
2022-08-24T04:52:48.448Z,4.23
2022-08-24T04:55:21.206Z,3.67
2022-08-24T04:57:55.054Z,4.20
2022-08-24T05:00:26.990Z,4.33
2022-08-24T05:02:59.176Z,4.60
2022-08-24T05:05:32.050Z,4.50
2022-08-24T05:08:04.539Z,3.70
2022-08-24T05:10:37.274Z,4.33
2022-08-24T05:13:09.445Z,4.67
2022-08-24T05:15:41.315Z,4.23
2022-08-24T05:18:14.561Z,4.03
2022-08-24T05:20:46.382Z,4.17
2022-08-24T05:23:18.736Z,4.30
2022-08-24T05:25:50.896Z,4.40
2022-08-24T05:28:22.819Z,4.17
2022-08-24T05:30:56.362Z,3.90
2022-08-24T05:33:28.340Z,4.50
2022-08-24T05:36:00.159Z,3.87
2022-08-24T05:38:32.217Z,3.80
2022-08-24T05:41:04.008Z,4.57
2022-08-24T05:43:36.240Z,4.10
2022-08-24T05:46:08.140Z,4.60
2022-08-24T05:48:40.108Z,3.70
2022-08-24T05:51:13.688Z,3.90
2022-08-24T05:53:47.270Z,4.07
2022-08-24T05:56:20.863Z,4.50
2022-08-24T05:58:52.855Z,4.43
2022-08-24T06:01:24.996Z,5.00
2022-08-24T06:03:57.122Z,4.43
2022-08-24T06:06:29.130Z,5.50
2022-08-24T06:09:01.040Z,5.87
2022-08-24T06:11:34.746Z,4.73
2022-08-24T06:14:07.655Z,5.23
2022-08-24T06:16:41.388Z,4.87
2022-08-24T06:19:13.834Z,4.37
2022-08-24T06:21:46.377Z,4.87
2022-08-24T06:24:18.457Z,4.33
2022-08-24T06:26:51.055Z,6.20
2022-08-24T06:29:22.986Z,5.37
2022-08-24T06:31:56.614Z,4.43
2022-08-24T06:34:30.623Z,5.47
2022-08-24T06:37:02.661Z,4.43
2022-08-24T06:39:34.745Z,4.03
2022-08-24T06:42:06.894Z,3.80
2022-08-24T06:44:38.817Z,4.40
2022-08-24T06:47:21.412Z,5.17
2022-08-24T06:49:55.036Z,4.57
2022-08-24T06:52:26.978Z,5.07
2022-08-24T06:54:58.806Z,5.53
2022-08-24T06:57:30.862Z,5.07
2022-08-24T07:00:02.809Z,4.00
2022-08-24T07:02:34.818Z,4.47
2022-08-24T07:05:06.732Z,3.73
2022-08-24T07:07:56.996Z,4.70
2022-08-24T07:10:29.231Z,4.50
2022-08-24T07:13:01.148Z,4.53
2022-08-24T07:15:33.744Z,3.40
2022-08-24T07:18:07.543Z,4.80
2022-08-24T07:20:39.462Z,5.20
2022-08-24T07:23:13.015Z,3.67
2022-08-24T07:25:49.745Z,3.80
2022-08-24T07:28:31.904Z,3.00
2022-08-24T07:30:53.650Z,4.17
2022-08-24T07:33:26.826Z,3.97
2022-08-24T07:35:58.712Z,3.73
2022-08-24T07:38:30.757Z,3.10
2022-08-24T07:41:33.201Z,3.67
2022-08-24T07:43:36.462Z,3.77
2022-08-24T07:46:09.959Z,4.57
2022-08-24T07:48:41.893Z,3.80
2022-08-24T07:51:14.390Z,4.70
2022-08-24T07:53:54.510Z,3.63
2022-08-24T07:56:20.578Z,3.27
2022-08-24T07:58:54.555Z,3.43
2022-08-24T08:01:26.894Z,3.90
2022-08-24T08:03:58.967Z,2.80
2022-08-24T08:06:31.086Z,2.33
2022-08-24T08:09:04.637Z,3.13
2022-08-24T08:11:36.591Z,2.57
2022-08-24T08:14:08.445Z,3.00
2022-08-24T08:16:40.535Z,3.73
2022-08-24T08:19:12.402Z,3.10
2022-08-24T08:21:45.947Z,3.30
2022-08-24T08:24:17.970Z,3.87
2022-08-24T08:26:53.166Z,3.80
2022-08-24T08:29:33.098Z,2.53
2022-08-24T08:32:05.794Z,3.10
2022-08-24T08:34:37.786Z,3.00
2022-08-24T08:37:09.725Z,2.70
2022-08-24T08:39:41.699Z,3.17
2022-08-24T08:42:15.294Z,4.20
2022-08-24T08:44:48.436Z,2.90
2022-08-24T08:47:20.330Z,2.77
2022-08-24T08:49:52.266Z,2.83
2022-08-24T08:52:24.710Z,2.20
2022-08-24T08:54:56.774Z,2.10
2022-08-24T08:57:29.514Z,2.93
2022-08-24T09:00:02.716Z,1.70
2022-08-24T09:02:36.631Z,2.70
2022-08-24T09:05:11.204Z,2.20
2022-08-24T09:07:43.035Z,2.40
2022-08-24T09:10:16.068Z,2.20
2022-08-24T09:12:47.928Z,2.67
2022-08-24T09:15:20.031Z,1.40
2022-08-24T09:17:52.495Z,1.80
2022-08-24T09:20:24.977Z,2.87
2022-08-24T09:22:57.003Z,2.40
2022-08-24T09:25:28.825Z,2.87
2022-08-24T09:28:02.647Z,2.03
2022-08-24T09:30:34.747Z,2.40
2022-08-24T09:33:06.927Z,1.97
2022-08-24T09:35:39.167Z,2.20
2022-08-24T09:38:11.286Z,2.17
2022-08-24T09:40:43.072Z,2.20
2022-08-24T09:43:14.886Z,1.50
2022-08-24T09:45:46.778Z,1.07
2022-08-24T09:48:20.298Z,0.80
2022-08-24T09:50:52.544Z,0.90
2022-08-24T09:53:24.388Z,1.10
2022-08-24T09:55:56.340Z,1.07
2022-08-24T09:58:28.321Z,0.87
2022-08-24T10:01:00.232Z,0.90
2022-08-24T10:03:37.874Z,0.90
2022-08-24T10:06:05.953Z,1.10
2022-08-24T10:08:37.926Z,1.23
2022-08-24T10:11:09.861Z,1.17
2022-08-24T10:13:41.752Z,1.10
2022-08-24T10:16:13.648Z,1.90
2022-08-24T10:18:45.493Z,1.03
2022-08-24T10:21:17.413Z,1.20
2022-08-24T10:23:49.242Z,1.00
2022-08-24T10:26:21.098Z,0.87
2022-08-24T10:28:52.965Z,0.70
2022-08-24T10:31:24.842Z,1.27
2022-08-24T10:33:56.695Z,0.90
2022-08-24T10:36:29.479Z,1.30
2022-08-24T10:39:01.475Z,0.80
2022-08-24T10:41:33.349Z,0.90
2022-08-24T10:44:07.260Z,0.60
2022-08-24T10:46:39.407Z,0.90
2022-08-24T10:49:13.278Z,0.70
2022-08-24T10:51:46.012Z,0.70
2022-08-24T10:54:17.865Z,1.13
2022-08-24T10:56:49.666Z,0.90
2022-08-24T10:59:21.550Z,1.20
2022-08-24T11:01:54.184Z,1.20
2022-08-24T11:04:26.129Z,1.00
2022-08-24T11:06:58.153Z,1.20
2022-08-24T11:09:30.046Z,1.13
2022-08-24T11:12:01.948Z,0.63
2022-08-24T11:14:33.776Z,0.80
2022-08-24T11:17:05.719Z,0.63
2022-08-24T11:19:37.610Z,0.87
2022-08-24T11:22:12.058Z,0.83
2022-08-24T11:24:43.961Z,1.00
2022-08-24T11:27:15.955Z,1.00
2022-08-24T11:29:47.802Z,0.97
2022-08-24T11:32:23.264Z,0.63
2022-08-24T11:34:57.782Z,0.50
2022-08-24T11:37:30.845Z,0.70
2022-08-24T11:40:02.887Z,0.60
2022-08-24T11:42:34.924Z,0.60
2022-08-24T11:45:06.820Z,0.50
2022-08-24T11:47:39.228Z,1.02
2022-08-24T11:50:11.340Z,0.70
2022-08-24T11:52:43.277Z,0.40
2022-08-24T11:55:15.113Z,0.60
2022-08-24T11:57:48.201Z,0.53
2022-08-24T12:00:20.379Z,0.42
2022-08-24T12:02:52.553Z,0.70
2022-08-24T12:05:25.841Z,0.40
2022-08-24T12:07:57.735Z,0.50
2022-08-24T12:10:32.643Z,0.47
2022-08-24T12:13:03.045Z,0.62
2022-08-24T12:15:35.213Z,0.53
2022-08-24T12:18:07.646Z,0.50
2022-08-24T12:20:41.060Z,0.40
2022-08-24T12:23:15.180Z,0.33
2022-08-24T12:25:47.754Z,0.40
2022-08-24T12:28:21.398Z,0.25
2022-08-24T12:30:53.764Z,0.50
2022-08-24T12:33:26.173Z,0.40
2022-08-24T12:35:58.790Z,0.33
2022-08-24T12:38:31.263Z,0.45
2022-08-24T12:41:17.806Z,0.30
2022-08-24T12:43:37.812Z,0.40
2022-08-24T12:46:10.474Z,0.45
2022-08-24T12:48:43.047Z,0.47
2022-08-24T12:51:14.883Z,0.37
2022-08-24T12:53:47.311Z,0.40
2022-08-24T12:56:19.459Z,0.60
2022-08-24T12:58:54.071Z,0.40
2022-08-24T13:01:26.464Z,0.40
2022-08-24T13:03:58.753Z,0.40
2022-08-24T13:06:32.755Z,0.40
2022-08-24T13:09:04.685Z,0.50
2022-08-24T13:11:37.094Z,0.55
2022-08-24T13:14:08.963Z,0.47
2022-08-24T13:16:40.801Z,0.60
2022-08-24T13:19:13.205Z,0.50
2022-08-24T13:21:45.194Z,0.60
2022-08-24T13:24:19.788Z,1.03
2022-08-24T13:26:50.738Z,0.60
2022-08-24T13:29:23.463Z,0.40
2022-08-24T13:31:55.346Z,0.60
2022-08-24T13:34:27.838Z,0.50
2022-08-24T13:36:59.835Z,0.55
2022-08-24T13:39:31.679Z,0.50
2022-08-24T13:42:03.489Z,0.50
2022-08-24T13:44:35.376Z,0.50
2022-08-24T13:47:07.228Z,0.47
2022-08-24T13:49:39.134Z,0.73
2022-08-24T13:52:12.959Z,0.50
2022-08-24T13:54:45.370Z,0.70
2022-08-24T13:57:17.879Z,0.42
2022-08-24T13:59:51.099Z,0.50
2022-08-24T14:02:22.933Z,0.68
2022-08-24T14:04:55.054Z,0.60
2022-08-24T14:07:26.937Z,0.42
2022-08-24T14:09:59.175Z,0.93
2022-08-24T14:12:30.995Z,0.47
2022-08-24T14:15:02.802Z,0.60
2022-08-24T14:17:35.480Z,0.70
2022-08-24T14:20:08.320Z,0.40
2022-08-24T14:22:40.762Z,0.40
2022-08-24T14:25:12.553Z,0.60
2022-08-24T14:27:44.571Z,0.50
2022-08-24T14:30:16.498Z,0.80
2022-08-24T14:32:48.375Z,0.30
2022-08-24T14:35:20.258Z,0.50
2022-08-24T14:37:56.782Z,0.55
2022-08-24T14:40:26.817Z,0.30
2022-08-24T14:42:58.909Z,0.50
2022-08-24T14:45:31.553Z,0.40
2022-08-24T14:48:04.105Z,0.47
2022-08-24T14:50:36.899Z,0.30
2022-08-24T14:53:08.679Z,0.60
2022-08-24T14:55:41.067Z,0.50
2022-08-24T14:58:13.540Z,0.65
2022-08-24T15:00:46.070Z,0.62
2022-08-24T15:03:18.482Z,0.60
2022-08-24T15:06:09.649Z,0.60
2022-08-24T15:08:24.406Z,0.62
2022-08-24T15:10:56.904Z,0.50
2022-08-24T15:13:28.754Z,0.40
2022-08-24T15:16:01.302Z,0.50
2022-08-24T15:18:36.829Z,0.40
2022-08-24T15:21:07.245Z,0.40
2022-08-24T15:23:39.071Z,0.60
2022-08-24T15:26:10.995Z,0.60
2022-08-24T15:28:55.178Z,0.40
2022-08-24T15:31:16.439Z,0.50
2022-08-24T15:33:48.290Z,0.87
2022-08-24T15:36:20.772Z,0.53
2022-08-24T15:38:52.823Z,0.47
2022-08-24T15:41:24.665Z,0.75
2022-08-24T15:43:57.109Z,0.60
2022-08-24T15:46:29.793Z,0.40
2022-08-24T15:49:01.800Z,0.70
2022-08-24T15:51:34.224Z,0.50
2022-08-24T15:54:06.042Z,0.70
2022-08-24T15:56:37.953Z,0.60
2022-08-24T15:59:09.780Z,0.63
2022-08-24T16:01:41.760Z,0.78
2022-08-24T16:04:14.345Z,0.62
2022-08-24T16:06:46.232Z,0.55
2022-08-24T16:09:18.150Z,0.60
2022-08-24T16:11:50.035Z,0.50
2022-08-24T16:14:21.966Z,0.60
2022-08-24T16:16:54.486Z,0.68
2022-08-24T16:19:27.086Z,0.47
2022-08-24T16:22:01.065Z,0.68
2022-08-24T16:24:33.423Z,0.80
2022-08-24T16:27:05.237Z,0.75
2022-08-24T16:29:39.274Z,0.53
2022-08-24T16:32:21.581Z,0.60
2022-08-24T16:34:45.336Z,0.60
2022-08-24T16:37:17.360Z,0.30
2022-08-24T16:39:49.212Z,0.53
2022-08-24T16:42:21.186Z,0.60
2022-08-24T16:44:53.269Z,0.50
2022-08-24T16:47:25.722Z,0.50
2022-08-24T16:49:57.614Z,0.72
2022-08-24T16:52:29.986Z,0.47
2022-08-24T16:55:01.825Z,0.55
2022-08-24T16:57:33.647Z,0.40
2022-08-24T17:00:06.057Z,0.35
2022-08-24T17:02:38.001Z,0.70
2022-08-24T17:05:09.985Z,0.70
2022-08-24T17:07:41.805Z,0.73
2022-08-24T17:10:13.707Z,1.22
2022-08-24T17:12:45.536Z,0.73
2022-08-24T17:15:17.961Z,0.95
2022-08-24T17:17:49.793Z,0.60
2022-08-24T17:20:21.624Z,0.70
2022-08-24T17:22:53.438Z,0.50
2022-08-24T17:25:25.317Z,1.53
2022-08-24T17:27:57.144Z,0.60
2022-08-24T17:30:30.116Z,0.93
2022-08-24T17:33:02.847Z,1.13
2022-08-24T17:35:34.665Z,0.90
2022-08-24T17:38:06.487Z,1.63
2022-08-24T17:40:38.341Z,0.70
2022-08-24T17:43:10.213Z,0.80
2022-08-24T17:45:42.012Z,0.83
2022-08-24T17:48:13.906Z,0.70
2022-08-24T17:50:45.953Z,0.80
2022-08-24T17:53:17.796Z,0.90
2022-08-24T17:55:49.914Z,0.77
2022-08-24T17:58:21.775Z,0.90
2022-08-24T18:00:53.724Z,0.73
2022-08-24T18:03:25.630Z,0.93
2022-08-24T18:05:57.534Z,0.80
2022-08-24T18:08:30.385Z,0.90
2022-08-24T18:11:02.215Z,0.63
2022-08-24T18:13:34.077Z,0.97
2022-08-24T18:16:06.482Z,0.80
2022-08-24T18:18:38.515Z,1.40
2022-08-24T18:21:10.895Z,0.80
2022-08-24T18:23:43.771Z,0.67
2022-08-24T18:26:16.166Z,0.80
2022-08-24T18:28:48.823Z,0.83
2022-08-24T18:31:22.168Z,0.90
2022-08-24T18:33:54.009Z,0.80
2022-08-24T18:36:25.828Z,0.67
2022-08-24T18:38:57.695Z,0.63
2022-08-24T18:41:29.632Z,0.83
2022-08-24T18:44:01.457Z,0.67
2022-08-24T18:46:33.283Z,0.60
2022-08-24T18:49:05.134Z,0.70
2022-08-24T18:51:37.243Z,0.97
2022-08-24T18:54:09.005Z,0.80
2022-08-24T18:56:40.873Z,0.80
2022-08-24T18:59:12.705Z,0.87
2022-08-24T19:01:44.631Z,0.80
2022-08-24T19:04:16.703Z,0.73
2022-08-24T19:06:49.461Z,0.80
2022-08-24T19:09:21.292Z,0.83
2022-08-24T19:11:53.182Z,0.80
2022-08-24T19:14:25.029Z,1.00
2022-08-24T19:16:56.845Z,0.63
2022-08-24T19:19:28.677Z,0.60
2022-08-24T19:22:00.516Z,0.97
2022-08-24T19:24:32.404Z,0.70
2022-08-24T19:27:04.357Z,0.70
2022-08-24T19:32:10.126Z,0.93
2022-08-24T19:34:43.131Z,0.60
2022-08-24T19:37:15.005Z,0.90
2022-08-24T19:39:47.892Z,0.87
2022-08-24T19:42:20.395Z,0.90
2022-08-24T19:44:52.437Z,0.97
2022-08-24T19:47:24.226Z,0.93
2022-08-24T19:49:56.155Z,0.87
2022-08-24T19:52:27.974Z,0.80
2022-08-24T19:54:59.879Z,1.10
2022-08-24T19:57:31.731Z,1.03
2022-08-24T20:00:05.151Z,0.90
2022-08-24T20:02:37.132Z,0.87
2022-08-24T20:05:09.021Z,0.90
2022-08-24T20:07:40.837Z,0.90
2022-08-24T20:10:13.307Z,1.00
2022-08-24T20:12:45.175Z,1.23
2022-08-24T20:15:17.100Z,1.20
2022-08-24T20:17:48.952Z,1.23
2022-08-24T20:20:20.906Z,1.20
2022-08-24T20:22:52.856Z,1.23
2022-08-24T20:25:24.781Z,1.30
2022-08-24T20:28:18.451Z,1.20
2022-08-24T20:30:30.288Z,1.27
2022-08-24T20:33:02.153Z,1.10
2022-08-24T20:35:33.987Z,1.30
2022-08-24T20:38:05.861Z,1.10
2022-08-24T20:40:37.987Z,1.10
2022-08-24T20:43:09.839Z,1.00
2022-08-24T20:45:43.340Z,1.50
2022-08-24T20:48:19.323Z,1.60
2022-08-24T20:50:51.185Z,1.50
2022-08-24T20:53:23.083Z,1.43
2022-08-24T20:55:54.984Z,1.57
2022-08-24T20:58:26.854Z,1.30
2022-08-24T21:00:58.864Z,1.37
2022-08-24T21:03:30.848Z,1.60
2022-08-24T21:06:02.655Z,1.60
2022-08-24T21:08:34.486Z,1.30
2022-08-24T21:11:06.373Z,1.43
2022-08-24T21:13:38.407Z,1.20
2022-08-24T21:16:10.260Z,1.90
2022-08-24T21:18:42.190Z,1.43
2022-08-24T21:21:14.114Z,1.47
2022-08-24T21:23:46.002Z,1.70
2022-08-24T21:26:17.846Z,1.40
2022-08-24T21:28:49.783Z,1.57
2022-08-24T21:31:21.844Z,1.90
2022-08-24T21:33:53.682Z,1.83
2022-08-24T21:36:25.531Z,1.77
2022-08-24T21:38:57.488Z,1.80
2022-08-24T21:41:29.357Z,2.00
2022-08-24T21:44:01.162Z,1.80
2022-08-24T21:46:33.158Z,1.80
2022-08-24T21:49:05.402Z,1.67
2022-08-24T21:51:37.361Z,1.70
2022-08-24T21:54:09.193Z,1.40
2022-08-24T21:56:41.042Z,1.80
2022-08-24T21:59:12.875Z,2.07
2022-08-24T22:01:44.768Z,1.80
2022-08-24T22:04:16.792Z,1.93
2022-08-24T22:06:48.673Z,1.90
2022-08-24T22:09:20.512Z,2.30
2022-08-24T22:11:52.372Z,2.00
2022-08-24T22:14:24.198Z,2.03
2022-08-24T22:16:56.107Z,2.23
2022-08-24T22:19:27.991Z,2.80
2022-08-24T22:21:59.900Z,2.17
2022-08-24T22:24:31.759Z,2.37
2022-08-24T22:27:03.737Z,2.70
2022-08-24T22:29:35.669Z,2.10
2022-08-24T22:32:07.512Z,2.60
2022-08-24T22:34:39.417Z,2.20
2022-08-24T22:37:11.260Z,2.33
2022-08-24T22:39:43.087Z,2.50
2022-08-24T22:42:14.957Z,2.60
2022-08-24T22:44:46.776Z,2.37
2022-08-24T22:47:18.700Z,2.47
2022-08-24T22:49:51.725Z,2.60
2022-08-24T22:52:23.649Z,2.40
2022-08-24T22:54:55.508Z,2.67
2022-08-24T22:57:27.361Z,2.67
2022-08-24T23:00:00.821Z,2.23
2022-08-24T23:02:32.689Z,2.57
2022-08-24T23:05:04.554Z,2.60
2022-08-24T23:07:36.394Z,2.60
2022-08-24T23:10:08.386Z,2.90
2022-08-24T23:12:40.245Z,2.70
2022-08-24T23:15:12.295Z,2.17
2022-08-24T23:17:44.084Z,2.57
2022-08-24T23:20:15.958Z,2.80
2022-08-24T23:22:47.881Z,3.30
2022-08-24T23:25:19.708Z,2.40
2022-08-24T23:27:51.603Z,2.33
2022-08-24T23:30:23.441Z,2.57
2022-08-24T23:32:55.308Z,2.40
2022-08-24T23:35:27.267Z,2.93
2022-08-24T23:37:59.152Z,2.33
2022-08-24T23:40:31.243Z,2.83
2022-08-24T23:43:03.456Z,2.50
2022-08-24T23:45:35.277Z,1.70
2022-08-24T23:48:07.193Z,2.97
2022-08-24T23:50:39.191Z,2.70
2022-08-24T23:53:11.023Z,2.80
2022-08-24T23:55:42.909Z,2.80
2022-08-24T23:58:14.798Z,2.40
